Strona główna
METAR-TAF:

METAR-TAF

Lotnisko :

Port lotniczy Alice Springs

Alice Springs, Australia

Szerokość geograficzna: 23-48S, Długość geograficzna: 133-53E, wysokość: 545 m

Aktualna obserwacja pogody

Raport powstał 38 minut temu, godzina 12:00 UTC
Cisza
Temperatura 10°C
Wilgotność 16%
Ciśnienie 1018 hPa
Widzialność 10 km lub więcej

METAR: YBAS 181200Z AUTO 00000KT 9999 // NCD 10/M15 Q1018 RF00.0/000.0

czas: 22:08 (12:38 UTC)

Prognoza

Raport powstał 1 godzina i 28 minut temu, godzina 11:10 UTC
Prognoza ważna od 18 godzina 12 UTC do 19 godzina 12 UTC
Wiatr 6 kt od północno-północny zachód
Widzialność 10 km lub więcej
Brak chmur poniżej 1500 m i brak chmur cumulonimbus
Od 19 godzina 0000 UTC
Wiatr 14 kt od południowy zachód
Widzialność 10 km lub więcej
Brak chmur poniżej 1500 m i brak chmur cumulonimbus

TAF: YBAS 181110Z 1812/1912 33006KT CAVOK FM190000 22014KT CAVOK

Obserwacja i prognoza pogody dla ponad 4000 lotnisk (raport METAR i TAF).

Dostępne stacje oznaczono żółtymi i czerwonymi punktami na mapie.

Najedź kursorem aby zobaczyć nazwę stacji.

Kliknij aby zobaczyć obserwacje i prognozy pogody.

Aby zmienić mapę: kliknij na zielony przycisk z czarnym krzyżykiem, aby powiększyć; na zielony przycisk z myślnikiem, aby pomniejszyć; na zielone strzałki, aby przejść do map sąsiednich.


METAR-TAF: